Meteorología y climatología de Navarra
Datos de la estación - Meteo Navarra

Estación de Iñarbegi GN

Altitud 585 m.


Datos desde el 11/10/2018 hasta el 12/10/2018 en horario solar
Los datos son PROVISIONALES

Anterior Página 1 de 1 Siguiente Descargar: Formato para Excel 2000 o superior   Formato csv   Formato para OpenOffice Calc
Fecha Temperatura Humedad relativa Radiación global Insolación Precipitación Velocidad viento 10 m Velocidad viento 10 m Dirección viento 10 m
ºC % W/m² s l/m² m/s km/h º
11/10/2018 0:00 16.7 66 - - - - 0.0 - - - - - -
11/10/2018 0:10 16.7 66 - - - - 0.0 - - - - - -
11/10/2018 0:20 16.7 66 - - - - 0.0 - - - - - -
11/10/2018 0:30 16.4 68 - - - - 0.0 - - - - - -
11/10/2018 0:40 16.5 67 - - - - 0.0 - - - - - -
11/10/2018 0:50 16.8 67 - - - - 0.0 - - - - - -
11/10/2018 1:00 17.0 66 - - - - 0.0 - - - - - -
11/10/2018 1:10 17.0 66 - - - - 0.0 - - - - - -
11/10/2018 1:20 17.1 66 - - - - 0.0 - - - - - -
11/10/2018 1:30 17.1 66 - - - - 0.0 - - - - - -
11/10/2018 1:40 17.1 66 - - - - 0.0 - - - - - -
11/10/2018 1:50 17.2 66 - - - - 0.0 - - - - - -
11/10/2018 2:00 17.2 66 - - - - 0.0 - - - - - -
11/10/2018 2:10 17.2 66 - - - - 0.0 - - - - - -
11/10/2018 2:20 17.3 66 - - - - 0.0 - - - - - -
11/10/2018 2:30 17.3 66 - - - - 0.0 - - - - - -
11/10/2018 2:40 17.4 65 - - - - 0.0 - - - - - -
11/10/2018 2:50 17.2 66 - - - - 0.0 - - - - - -
11/10/2018 3:00 17.5 65 - - - - 0.0 - - - - - -
11/10/2018 3:10 17.5 65 - - - - 0.0 - - - - - -
11/10/2018 3:20 17.5 65 - - - - 0.0 - - - - - -
11/10/2018 3:30 17.6 64 - - - - 0.0 - - - - - -
11/10/2018 3:40 17.7 64 - - - - 0.0 - - - - - -
11/10/2018 3:50 17.7 64 - - - - 0.0 - - - - - -
11/10/2018 4:00 17.6 64 - - - - 0.0 - - - - - -
11/10/2018 4:10 17.5 64 - - - - 0.0 - - - - - -
11/10/2018 4:20 17.5 64 - - - - 0.0 - - - - - -
11/10/2018 4:30 17.6 64 - - - - 0.0 - - - - - -
11/10/2018 4:40 17.7 63 - - - - 0.0 - - - - - -
11/10/2018 4:50 17.7 63 - - - - 0.0 - - - - - -
11/10/2018 5:00 17.6 64 - - - - 0.0 - - - - - -
11/10/2018 5:10 17.4 65 - - - - 0.0 - - - - - -
11/10/2018 5:20 17.2 66 - - - - 0.0 - - - - - -
11/10/2018 5:30 17.2 66 - - - - 0.0 - - - - - -
11/10/2018 5:40 17.1 67 - - - - 0.0 - - - - - -
11/10/2018 5:50 17.0 68 - - - - 0.0 - - - - - -
11/10/2018 6:00 17.0 68 - - - - 0.0 - - - - - -
11/10/2018 6:10 17.2 67 - - - - 0.0 - - - - - -
11/10/2018 6:20 17.3 67 - - - - 0.0 - - - - - -
11/10/2018 6:30 17.3 67 - - - - 0.0 - - - - - -
11/10/2018 6:40 17.3 67 - - - - 0.0 - - - - - -
11/10/2018 6:50 17.3 67 - - - - 0.0 - - - - - -
11/10/2018 7:00 17.4 67 - - - - 0.0 - - - - - -
11/10/2018 7:10 17.5 67 - - - - 0.0 - - - - - -
11/10/2018 7:20 17.6 66 - - - - 0.0 - - - - - -
11/10/2018 7:30 17.7 66 - - - - 0.0 - - - - - -
11/10/2018 7:40 17.7 66 - - - - 0.0 - - - - - -
11/10/2018 7:50 17.8 65 - - - - 0.0 - - - - - -
11/10/2018 8:00 18.0 65 - - - - 0.0 - - - - - -
11/10/2018 8:10 18.0 66 - - - - 0.0 - - - - - -
11/10/2018 8:20 18.0 65 - - - - 0.0 - - - - - -
11/10/2018 8:30 18.1 66 - - - - 0.0 - - - - - -
11/10/2018 8:40 18.2 65 - - - - 0.0 - - - - - -
11/10/2018 8:50 18.4 64 - - - - 0.0 - - - - - -
11/10/2018 9:00 18.5 64 - - - - 0.0 - - - - - -
11/10/2018 9:10 18.8 63 - - - - 0.0 - - - - - -
11/10/2018 9:20 18.7 64 - - - - 0.0 - - - - - -
11/10/2018 9:30 18.7 64 - - - - 0.0 - - - - - -
11/10/2018 9:40 19.3 63 - - - - 0.0 - - - - - -
11/10/2018 9:50 19.6 61 - - - - 0.0 - - - - - -
11/10/2018 10:00 19.3 62 - - - - 0.0 - - - - - -
11/10/2018 10:10 20.0 60 - - - - 0.0 - - - - - -
11/10/2018 10:20 20.2 60 - - - - 0.0 - - - - - -
11/10/2018 10:30 20.1 60 - - - - 0.0 - - - - - -
11/10/2018 10:40 20.2 59 - - - - 0.0 - - - - - -
11/10/2018 10:50 20.5 58 - - - - 0.0 - - - - - -
11/10/2018 11:00 21.4 56 - - - - 0.0 - - - - - -
11/10/2018 11:10 20.6 59 - - - - 0.0 - - - - - -
11/10/2018 11:20 19.9 61 - - - - 0.0 - - - - - -
11/10/2018 11:30 19.8 62 - - - - 0.0 - - - - - -
11/10/2018 11:40 19.8 61 - - - - 0.0 - - - - - -
11/10/2018 11:50 19.9 61 - - - - 0.0 - - - - - -
11/10/2018 12:00 20.1 61 - - - - 0.0 - - - - - -
11/10/2018 12:10 20.2 60 - - - - 0.0 - - - - - -
11/10/2018 12:20 20.0 61 - - - - 0.0 - - - - - -
11/10/2018 12:30 19.8 63 - - - - 0.0 - - - - - -
11/10/2018 12:40 19.5 65 - - - - 0.0 - - - - - -
11/10/2018 12:50 19.3 65 - - - - 0.0 - - - - - -
11/10/2018 13:00 19.3 66 - - - - 0.0 - - - - - -
11/10/2018 13:10 19.5 65 - - - - 0.0 - - - - - -
11/10/2018 13:20 19.7 63 - - - - 0.0 - - - - - -
11/10/2018 13:30 19.9 63 - - - - 0.0 - - - - - -
11/10/2018 13:40 19.9 63 - - - - 0.0 - - - - - -
11/10/2018 13:50 19.9 63 - - - - 0.0 - - - - - -
11/10/2018 14:00 19.8 64 - - - - 0.0 - - - - - -
11/10/2018 14:10 20.5 62 - - - - 0.0 - - - - - -
11/10/2018 14:20 21.4 59 - - - - 0.0 - - - - - -
11/10/2018 14:30 21.6 58 - - - - 0.0 - - - - - -
11/10/2018 14:40 20.8 60 - - - - 0.0 - - - - - -
11/10/2018 14:50 20.7 60 - - - - 0.0 - - - - - -
11/10/2018 15:00 21.5 58 - - - - 0.0 - - - - - -
11/10/2018 15:10 20.7 61 - - - - 0.0 - - - - - -
11/10/2018 15:20 20.7 61 - - - - 0.0 - - - - - -
11/10/2018 15:30 20.7 61 - - - - 0.0 - - - - - -
11/10/2018 15:40 21.0 61 - - - - 0.0 - - - - - -
11/10/2018 15:50 20.8 60 - - - - 0.0 - - - - - -
11/10/2018 16:00 20.6 60 - - - - 0.0 - - - - - -
11/10/2018 16:10 20.6 61 - - - - 0.0 - - - - - -
11/10/2018 16:20 20.4 61 - - - - 0.0 - - - - - -
11/10/2018 16:30 20.1 63 - - - - 0.0 - - - - - -
11/10/2018 16:40 19.9 65 - - - - 0.0 - - - - - -
11/10/2018 16:50 19.0 71 - - - - 0.0 - - - - - -
11/10/2018 17:00 19.0 71 - - - - 0.0 - - - - - -
11/10/2018 17:10 19.0 70 - - - - 0.0 - - - - - -
11/10/2018 17:20 19.2 70 - - - - 0.0 - - - - - -
11/10/2018 17:30 18.9 72 - - - - 0.0 - - - - - -
11/10/2018 17:40 19.1 71 - - - - 0.0 - - - - - -
11/10/2018 17:50 19.1 70 - - - - 0.0 - - - - - -
11/10/2018 18:00 19.3 68 - - - - 0.0 - - - - - -
11/10/2018 18:10 19.2 68 - - - - 0.0 - - - - - -
11/10/2018 18:20 19.4 67 - - - - 0.0 - - - - - -
11/10/2018 18:30 19.5 67 - - - - 0.0 - - - - - -
11/10/2018 18:40 19.6 66 - - - - 0.0 - - - - - -
11/10/2018 18:50 19.7 66 - - - - 0.0 - - - - - -
11/10/2018 19:00 19.8 65 - - - - 0.0 - - - - - -
11/10/2018 19:10 19.9 65 - - - - 0.0 - - - - - -
11/10/2018 19:20 20.0 64 - - - - 0.0 - - - - - -
11/10/2018 19:30 19.9 65 - - - - 0.0 - - - - - -
11/10/2018 19:40 19.9 65 - - - - 0.0 - - - - - -
11/10/2018 19:50 19.8 65 - - - - 0.0 - - - - - -
11/10/2018 20:00 19.8 65 - - - - 0.0 - - - - - -
11/10/2018 20:10 19.8 66 - - - - 0.0 - - - - - -
11/10/2018 20:20 19.8 65 - - - - 0.0 - - - - - -
11/10/2018 20:30 19.8 65 - - - - 0.0 - - - - - -
11/10/2018 20:40 19.7 65 - - - - 0.0 - - - - - -
11/10/2018 20:50 19.8 65 - - - - 0.0 - - - - - -
11/10/2018 21:00 19.7 65 - - - - 0.0 - - - - - -
11/10/2018 21:10 19.6 66 - - - - 0.0 - - - - - -
11/10/2018 21:20 19.6 66 - - - - 0.0 - - - - - -
11/10/2018 21:30 19.9 64 - - - - 0.0 - - - - - -
11/10/2018 21:40 19.8 65 - - - - 0.0 - - - - - -
11/10/2018 21:50 19.8 65 - - - - 0.0 - - - - - -
11/10/2018 22:00 19.8 65 - - - - 0.0 - - - - - -
11/10/2018 22:10 19.7 65 - - - - 0.0 - - - - - -
11/10/2018 22:20 19.9 64 - - - - 0.0 - - - - - -
11/10/2018 22:30 19.8 65 - - - - 0.0 - - - - - -
11/10/2018 22:40 20.0 64 - - - - 0.0 - - - - - -
11/10/2018 22:50 19.9 64 - - - - 0.0 - - - - - -
11/10/2018 23:00 19.9 64 - - - - 0.0 - - - - - -
11/10/2018 23:10 20.0 64 - - - - 0.0 - - - - - -
11/10/2018 23:20 20.0 64 - - - - 0.0 - - - - - -
11/10/2018 23:30 20.0 64 - - - - 0.0 - - - - - -
11/10/2018 23:40 19.9 65 - - - - 0.0 - - - - - -
11/10/2018 23:50 19.8 65 - - - - 0.0 - - - - - -
Anterior Página 1 de 1 Siguiente

NOTA: Tipo de datos según el color:
   - Valores diarios o 10 minutos correctos
   - Valores diarios calculados a partir de un número de datos 10 minutos menor que 144 y mayor que 120, o de un número de datos semihorarios menor que 48 y mayor que 40 (caso de las estaciones de Riegos de Navarra y del MARM)
   - Valores diez minutos estimados


Contacto        Enlaces        Aviso legal